Time;durP1;ratioP1;P1;durP2;ratioP2;P2;SDS_P1;SDS_P2;PMS_P1;PMS_P2;Temp;Humidity;BMP_temperature;BMP_pressure;BME280_temperature;BME280_humidity;BME280_pressure;Samples;Min_cycle;Max_cycle;Signal;HPM_P1;HPM_P2
2021/06/06 00:01:52;;;;;;;;;11.75;9.75;;;;;-147.91;100.00;58652.34;5055698;27;46369;-80
2021/06/06 00:04:21;;;;;;;;;13.75;11.75;;;;;-147.91;100.00;58652.34;5056050;27;45248;-79
2021/06/06 00:06:47;;;;;;;;;10.75;8.75;;;;;-147.91;100.00;58652.34;5054296;27;46045;-80
2021/06/06 00:09:16;;;;;;;;;14.25;9.25;;;;;-147.91;100.00;58652.34;5061089;28;45555;-79
2021/06/06 00:11:48;;;;;;;;;10.75;9.25;;;;;-147.91;100.00;58652.34;5059725;27;45594;-80
2021/06/06 00:14:18;;;;;;;;;8.50;8.25;;;;;-147.91;100.00;58652.34;5059629;27;45549;-80
2021/06/06 00:16:47;;;;;;;;;14.00;10.25;;;;;-147.91;100.00;58652.34;5059769;27;48936;-80
2021/06/06 00:19:13;;;;;;;;;11.00;8.25;;;;;-147.91;100.00;58652.34;5053902;27;46019;-79
2021/06/06 00:21:40;;;;;;;;;11.00;7.00;;;;;-147.91;100.00;58652.34;5055290;27;45339;-81
2021/06/06 00:24:08;;;;;;;;;15.50;12.75;;;;;-147.91;100.00;58652.34;5058974;27;45376;-79
2021/06/06 00:26:34;;;;;;;;;12.00;11.00;;;;;-147.91;100.00;58652.34;5051208;27;47040;-79
2021/06/06 00:29:00;;;;;;;;;14.00;12.25;;;;;-147.91;100.00;58652.34;5060559;27;46602;-80
2021/06/06 00:31:26;;;;;;;;;15.25;13.00;;;;;-147.91;100.00;58652.34;5057658;27;45536;-80
2021/06/06 00:33:52;;;;;;;;;12.50;12.50;;;;;-147.91;100.00;58652.34;5056513;27;45704;-79
2021/06/06 00:36:19;;;;;;;;;12.00;9.75;;;;;-147.91;100.00;58652.34;5058897;28;45141;-81
2021/06/06 00:38:45;;;;;;;;;15.00;10.50;;;;;-147.91;100.00;58652.34;5053203;27;45647;-79
2021/06/06 00:41:12;;;;;;;;;14.50;11.75;;;;;-147.91;100.00;58652.34;5056423;27;45470;-80
2021/06/06 00:43:38;;;;;;;;;13.50;12.00;;;;;-147.91;100.00;58652.34;5056262;27;46177;-80
2021/06/06 00:46:05;;;;;;;;;10.00;8.00;;;;;-147.91;100.00;58652.34;5054357;27;46974;-80
2021/06/06 00:48:30;;;;;;;;;13.00;12.00;;;;;-147.91;100.00;58652.34;5057825;27;46020;-80
2021/06/06 00:51:00;;;;;;;;;14.50;11.00;;;;;-147.91;100.00;58652.34;5055538;27;45766;-79
2021/06/06 00:53:34;;;;;;;;;8.25;7.00;;;;;-147.91;100.00;58652.34;5058513;27;45623;-80
2021/06/06 00:56:01;;;;;;;;;12.75;10.50;;;;;-147.91;100.00;58652.34;5064249;28;47569;-79
2021/06/06 00:58:27;;;;;;;;;8.00;8.00;;;;;-147.91;100.00;58652.34;5055367;27;45643;-80
2021/06/06 01:00:54;;;;;;;;;9.25;7.50;;;;;-147.91;100.00;58652.34;5055574;28;45578;-80
2021/06/06 01:03:23;;;;;;;;;11.25;10.25;;;;;-147.91;100.00;58652.34;5059248;27;46000;-79
2021/06/06 01:06:00;;;;;;;;;9.50;7.50;;;;;-147.91;100.00;58652.34;5065970;27;47226;-79
2021/06/06 01:08:28;;;;;;;;;11.00;9.00;;;;;-147.91;100.00;58652.34;5054403;27;45590;-80
2021/06/06 01:11:00;;;;;;;;;10.75;9.50;;;;;-147.91;100.00;58652.34;5061666;28;45613;-81
2021/06/06 01:13:36;;;;;;;;;10.75;9.25;;;;;-147.91;100.00;58652.34;5058590;27;45565;-79
2021/06/06 01:16:07;;;;;;;;;13.25;8.50;;;;;-147.91;100.00;58652.34;5052318;27;45966;-80
2021/06/06 01:18:37;;;;;;;;;17.00;11.50;;;;;-147.91;100.00;58652.34;5055838;27;45801;-80
2021/06/06 01:21:22;;;;;;;;;14.00;12.75;;;;;-147.91;100.00;58652.34;5058816;28;48818;-80
2021/06/06 01:24:11;;;;;;;;;19.75;16.75;;;;;-147.91;100.00;58652.34;5053819;27;45673;-79
2021/06/06 01:26:42;;;;;;;;;28.25;19.75;;;;;-147.91;100.00;58652.34;5062784;27;48582;-80
2021/06/06 01:29:32;;;;;;;;;33.00;27.75;;;;;-147.91;100.00;58652.34;5060757;27;55949;-79
2021/06/06 01:32:03;;;;;;;;;31.00;27.00;;;;;-147.91;100.00;58652.34;5057902;27;45503;-79
2021/06/06 01:34:31;;;;;;;;;31.50;24.25;;;;;-147.91;100.00;58652.34;5050863;27;45710;-80
2021/06/06 01:37:11;;;;;;;;;22.75;21.25;;;;;-147.91;100.00;58652.34;5054880;28;46345;-79
2021/06/06 01:39:45;;;;;;;;;21.75;21.25;;;;;-147.91;100.00;58652.34;5058728;28;47165;-80
2021/06/06 01:42:28;;;;;;;;;22.50;15.00;;;;;-147.91;100.00;58652.34;5058266;28;45555;-80
2021/06/06 01:45:00;;;;;;;;;20.00;14.75;;;;;-147.91;100.00;58652.34;5071962;27;45843;-79
2021/06/06 01:47:28;;;;;;;;;16.50;14.00;;;;;-147.91;100.00;58652.34;5057764;28;46422;-80
2021/06/06 01:49:58;;;;;;;;;15.75;14.75;;;;;-147.91;100.00;58652.34;5058652;27;45543;-80
2021/06/06 01:52:29;;;;;;;;;18.50;14.75;;;;;-147.91;100.00;58652.34;5056219;27;45487;-80
2021/06/06 01:54:56;;;;;;;;;17.75;15.75;;;;;-147.91;100.00;58652.34;5060233;28;46006;-80
2021/06/06 01:57:24;;;;;;;;;17.75;16.50;;;;;-147.91;100.00;58652.34;5058354;27;45508;-80
2021/06/06 01:59:53;;;;;;;;;19.00;14.50;;;;;-147.91;100.00;58652.34;5057822;27;46119;-80
2021/06/06 02:02:19;;;;;;;;;19.00;15.75;;;;;-147.91;100.00;58652.34;5060303;27;45561;-80
2021/06/06 02:04:46;;;;;;;;;13.25;13.00;;;;;-147.91;100.00;58652.34;5064453;27;45637;-80
2021/06/06 02:07:29;;;;;;;;;15.75;12.75;;;;;-147.91;100.00;58652.34;5054513;27;47067;-79
2021/06/06 02:10:27;;;;;;;;;12.50;12.50;;;;;-147.91;100.00;58652.34;5061574;27;45928;-80
2021/06/06 02:13:01;;;;;;;;;13.00;13.00;;;;;-147.91;100.00;58652.34;5059208;27;45503;-80
2021/06/06 02:18:07;;;;;;;;;17.75;12.50;;;;;-147.91;100.00;58652.34;5750854;22;45936;-84
2021/06/06 02:20:38;;;;;;;;;16.50;12.50;;;;;-147.91;100.00;58652.34;5041294;28;45556;-79
2021/06/06 02:23:05;;;;;;;;;20.25;12.25;;;;;-147.91;100.00;58652.34;5047065;28;45655;-79
2021/06/06 02:25:43;;;;;;;;;16.50;13.50;;;;;-147.91;100.00;58652.34;5055127;28;45397;-77
2021/06/06 02:28:36;;;;;;;;;12.00;10.00;;;;;-147.91;100.00;58652.34;5091157;22;46519;-92
2021/06/06 02:31:16;;;;;;;;;18.00;12.75;;;;;-147.91;100.00;58652.34;5065807;27;45685;-92
2021/06/06 02:33:52;;;;;;;;;15.50;12.75;;;;;-147.91;100.00;58652.34;5068280;27;45574;-92
2021/06/06 02:36:19;;;;;;;;;13.25;11.25;;;;;-147.91;100.00;58652.34;5071903;27;45953;-92
2021/06/06 02:38:54;;;;;;;;;14.75;11.00;;;;;-147.91;100.00;58652.34;5070825;27;46649;-92
2021/06/06 02:41:24;;;;;;;;;19.00;11.00;;;;;-147.91;100.00;58652.34;5062179;28;45497;-92
2021/06/06 02:44:06;;;;;;;;;12.75;10.00;;;;;-147.91;100.00;58652.34;5069055;27;45496;-92
2021/06/06 02:46:34;;;;;;;;;13.25;11.00;;;;;-147.91;100.00;58652.34;5065278;27;45543;-93
2021/06/06 02:49:07;;;;;;;;;17.25;11.00;;;;;-147.91;100.00;58652.34;5068802;27;48062;-93
2021/06/06 02:51:39;;;;;;;;;14.00;10.00;;;;;-147.91;100.00;58652.34;5067234;27;46897;-92
2021/06/06 02:54:11;;;;;;;;;11.25;10.50;;;;;-147.91;100.00;58652.34;5070166;28;45635;-93
2021/06/06 02:56:43;;;;;;;;;10.75;8.75;;;;;-147.91;100.00;58652.34;5068838;27;45535;-92
2021/06/06 02:59:21;;;;;;;;;12.00;10.00;;;;;-147.91;100.00;58652.34;5070797;27;47275;-92
2021/06/06 03:01:54;;;;;;;;;10.00;9.00;;;;;-147.91;100.00;58652.34;5064679;27;45540;-93
2021/06/06 03:04:24;;;;;;;;;11.00;9.25;;;;;-147.91;100.00;58652.34;5061518;27;45533;-92
2021/06/06 03:06:57;;;;;;;;;8.00;6.50;;;;;-147.91;100.00;58652.34;5083010;27;45901;-92
2021/06/06 03:09:23;;;;;;;;;10.50;9.00;;;;;-147.91;100.00;58652.34;5074144;28;48247;-93
2021/06/06 03:11:52;;;;;;;;;9.75;9.00;;;;;-147.91;100.00;58652.34;5071156;27;45523;-93
2021/06/06 03:14:24;;;;;;;;;11.25;8.25;;;;;-147.91;100.00;58652.34;5064704;27;45556;-93
2021/06/06 03:17:03;;;;;;;;;7.50;7.25;;;;;-147.91;100.00;58652.34;5064685;27;45330;-92
2021/06/06 03:19:33;;;;;;;;;7.25;5.25;;;;;-147.91;100.00;58652.34;5063274;27;47390;-92
2021/06/06 03:22:02;;;;;;;;;8.50;6.00;;;;;-147.91;100.00;58652.34;5058849;28;45383;-92
2021/06/06 03:24:36;;;;;;;;;8.25;6.50;;;;;-147.91;100.00;58652.34;5063363;28;45662;-93
2021/06/06 03:27:06;;;;;;;;;8.50;6.00;;;;;-147.91;100.00;58652.34;5062197;27;45769;-92
2021/06/06 03:29:47;;;;;;;;;6.75;5.00;;;;;-147.91;100.00;58652.34;5065711;27;46217;-92
2021/06/06 03:32:14;;;;;;;;;8.75;8.00;;;;;-147.91;100.00;58652.34;5075017;27;45492;-91
2021/06/06 03:34:39;;;;;;;;;7.25;5.75;;;;;-147.91;100.00;58652.34;5070616;28;45535;-92
2021/06/06 03:37:05;;;;;;;;;7.00;7.00;;;;;-147.91;100.00;58652.34;5067120;27;45758;-92
2021/06/06 03:39:30;;;;;;;;;6.00;6.00;;;;;-147.91;100.00;58652.34;5066973;27;47468;-93
2021/06/06 03:41:58;;;;;;;;;5.50;5.00;;;;;-147.91;100.00;58652.34;5066481;27;45435;-92
2021/06/06 03:44:24;;;;;;;;;7.00;5.00;;;;;-147.91;100.00;58652.34;5066265;27;45559;-93
2021/06/06 03:46:49;;;;;;;;;7.00;7.00;;;;;-147.91;100.00;58652.34;5079351;27;45494;-92
2021/06/06 03:49:16;;;;;;;;;8.00;7.50;;;;;-147.91;100.00;58652.34;5074681;27;48279;-93
2021/06/06 03:51:42;;;;;;;;;6.00;6.00;;;;;-147.91;100.00;58652.34;5063513;27;44857;-92
2021/06/06 03:54:10;;;;;;;;;6.00;6.00;;;;;-147.91;100.00;58652.34;5065211;27;46945;-92
2021/06/06 03:56:38;;;;;;;;;10.50;7.25;;;;;-147.91;100.00;58652.34;5060214;28;45370;-92
2021/06/06 03:59:05;;;;;;;;;7.00;7.00;;;;;-147.91;100.00;58652.34;5062200;27;48752;-93
2021/06/06 04:01:31;;;;;;;;;9.75;7.25;;;;;-147.91;100.00;58652.34;5078382;27;45607;-92
2021/06/06 04:03:57;;;;;;;;;7.25;7.25;;;;;-147.91;100.00;58652.34;5059478;27;45474;-93
2021/06/06 04:06:23;;;;;;;;;10.75;7.25;;;;;-147.91;100.00;58652.34;5066393;27;45465;-93
2021/06/06 04:08:49;;;;;;;;;9.25;8.50;;;;;-147.91;100.00;58652.34;5059768;27;45495;-92
2021/06/06 04:11:15;;;;;;;;;8.00;7.25;;;;;-147.91;100.00;58652.34;5065522;28;46119;-93
2021/06/06 04:13:40;;;;;;;;;6.50;6.00;;;;;-147.91;100.00;58652.34;5072652;28;45479;-92
2021/06/06 04:16:06;;;;;;;;;7.00;6.00;;;;;-147.91;100.00;58652.34;5065295;27;45489;-92
2021/06/06 04:18:33;;;;;;;;;8.25;6.75;;;;;-147.91;100.00;58652.34;5060461;28;47427;-92
2021/06/06 04:21:02;;;;;;;;;8.75;8.00;;;;;-147.91;100.00;58652.34;5063578;27;46854;-93
2021/06/06 04:23:29;;;;;;;;;6.00;6.00;;;;;-147.91;100.00;58652.34;5066717;27;45760;-91
2021/06/06 04:25:54;;;;;;;;;13.50;9.00;;;;;-147.91;100.00;58652.34;5065902;28;45468;-92
2021/06/06 04:28:22;;;;;;;;;9.75;9.00;;;;;-147.91;100.00;58652.34;5063322;27;47954;-92
2021/06/06 04:30:49;;;;;;;;;12.00;8.00;;;;;-147.91;100.00;58652.34;5060503;27;45570;-91
2021/06/06 04:33:15;;;;;;;;;9.00;6.00;;;;;-147.91;100.00;58652.34;5068388;28;45780;-93
2021/06/06 04:35:43;;;;;;;;;6.00;6.00;;;;;-147.91;100.00;58652.34;5064918;27;46200;-93
2021/06/06 04:38:12;;;;;;;;;6.75;6.00;;;;;-147.91;100.00;58652.34;5069794;27;47478;-92
2021/06/06 04:40:39;;;;;;;;;8.50;7.50;;;;;-147.91;100.00;58652.34;5082222;27;44958;-93
2021/06/06 04:43:04;;;;;;;;;7.00;6.00;;;;;-147.91;100.00;58652.34;5074583;27;45491;-92
2021/06/06 04:45:31;;;;;;;;;7.25;6.00;;;;;-147.91;100.00;58652.34;5072574;27;45608;-93
2021/06/06 04:48:12;;;;;;;;;7.00;7.00;;;;;-147.91;100.00;58652.34;5077560;27;46620;-92
2021/06/06 04:50:38;;;;;;;;;8.75;7.50;;;;;-147.91;100.00;58652.34;5071636;28;45626;-92
2021/06/06 04:53:06;;;;;;;;;12.25;7.25;;;;;-147.91;100.00;58652.34;5068266;27;45516;-92
2021/06/06 04:55:31;;;;;;;;;7.50;5.00;;;;;-147.91;100.00;58652.34;5063364;27;45633;-91
2021/06/06 04:57:56;;;;;;;;;5.75;5.75;;;;;-147.91;100.00;58652.34;5062579;27;47204;-92
2021/06/06 05:00:25;;;;;;;;;7.00;3.50;;;;;-147.91;100.00;58652.34;5060980;27;45584;-94
2021/06/06 05:02:52;;;;;;;;;5.00;5.00;;;;;-147.91;100.00;58652.34;5066436;27;45903;-92
2021/06/06 05:05:18;;;;;;;;;5.75;5.00;;;;;-147.91;100.00;58652.34;5060808;27;45377;-92
2021/06/06 05:07:59;;;;;;;;;3.00;3.00;;;;;-147.91;100.00;58652.34;5061273;27;47602;-93
2021/06/06 05:10:26;;;;;;;;;7.00;4.00;;;;;-147.91;100.00;58652.34;5058044;27;45563;-93
2021/06/06 05:12:52;;;;;;;;;5.00;5.00;;;;;-147.91;100.00;58652.34;5064512;27;45531;-92
2021/06/06 05:15:19;;;;;;;;;5.75;5.50;;;;;-147.91;100.00;58652.34;5062354;27;45539;-93
2021/06/06 05:17:45;;;;;;;;;5.75;4.00;;;;;-147.91;100.00;58652.34;5063411;27;47114;-91
2021/06/06 05:20:12;;;;;;;;;4.50;4.50;;;;;-147.91;100.00;58652.34;5069167;27;45437;-93
2021/06/06 05:22:37;;;;;;;;;3.00;3.00;;;;;-147.91;100.00;58652.34;5067500;27;45560;-94
2021/06/06 05:25:05;;;;;;;;;4.00;4.00;;;;;-147.91;100.00;58652.34;5069080;27;45470;-93
2021/06/06 05:27:30;;;;;;;;;9.00;3.00;;;;;-147.91;100.00;58652.34;5077513;27;48569;-92
2021/06/06 05:29:56;;;;;;;;;4.50;3.50;;;;;-147.91;100.00;58652.34;5068463;27;45578;-93
2021/06/06 05:32:21;;;;;;;;;9.00;5.00;;;;;-147.91;100.00;58652.34;5071410;27;45483;-92
2021/06/06 05:34:46;;;;;;;;;8.50;4.25;;;;;-147.91;100.00;58652.34;5073941;27;45368;-92
2021/06/06 05:37:13;;;;;;;;;4.75;3.50;;;;;-147.91;100.00;58652.34;5071232;27;48530;-94
2021/06/06 05:39:40;;;;;;;;;3.75;3.75;;;;;-147.91;100.00;58652.34;5063907;27;45564;-92
2021/06/06 05:42:07;;;;;;;;;8.00;3.00;;;;;-147.91;100.00;58652.34;5068929;27;45310;-92
2021/06/06 05:44:32;;;;;;;;;5.00;4.00;;;;;-147.91;100.00;58652.34;5064296;27;45953;-93
2021/06/06 05:46:58;;;;;;;;;4.25;4.25;;;;;-147.91;100.00;58652.34;5067400;27;47326;-91
2021/06/06 05:49:23;;;;;;;;;5.00;3.50;;;;;-147.91;100.00;58652.34;5065237;27;45448;-93
2021/06/06 05:51:49;;;;;;;;;5.25;3.50;;;;;-147.91;100.00;58652.34;5075867;27;45520;-93
2021/06/06 05:54:14;;;;;;;;;3.50;3.50;;;;;-147.91;100.00;58652.34;5087322;27;45401;-93
2021/06/06 05:56:40;;;;;;;;;5.50;3.25;;;;;-147.91;100.00;58652.34;5060589;27;47105;-92
2021/06/06 05:59:05;;;;;;;;;3.75;2.75;;;;;-147.91;100.00;58652.34;5072628;27;45495;-92
2021/06/06 06:01:31;;;;;;;;;4.25;3.75;;;;;-147.91;100.00;58652.34;5063109;27;45762;-94
2021/06/06 06:03:56;;;;;;;;;2.50;2.50;;;;;-147.91;100.00;58652.34;5070363;27;45354;-91
2021/06/06 06:06:22;;;;;;;;;2.50;2.00;;;;;-147.91;100.00;58652.34;5062401;28;45565;-93
2021/06/06 06:08:48;;;;;;;;;3.25;2.50;;;;;-147.91;100.00;58652.34;5060348;27;45819;-91
2021/06/06 06:11:16;;;;;;;;;4.00;2.00;;;;;-147.91;100.00;58652.34;5064077;27;45543;-91
2021/06/06 06:13:42;;;;;;;;;2.75;2.75;;;;;-147.91;100.00;58652.34;5069416;27;45500;-92
2021/06/06 06:16:10;;;;;;;;;3.25;3.00;;;;;-147.91;100.00;58652.34;5062111;27;46681;-92
2021/06/06 06:18:36;;;;;;;;;3.75;2.75;;;;;-147.91;100.00;58652.34;5066964;27;45834;-92
2021/06/06 06:21:04;;;;;;;;;5.50;3.00;;;;;-147.91;100.00;58652.34;5064964;27;46053;-93
2021/06/06 06:23:30;;;;;;;;;3.50;2.50;;;;;-147.91;100.00;58652.34;5065254;27;45670;-92
2021/06/06 06:25:55;;;;;;;;;4.00;2.00;;;;;-147.91;100.00;58652.34;5075606;27;47394;-92
2021/06/06 06:28:21;;;;;;;;;3.50;2.00;;;;;-147.91;100.00;58652.34;5062512;27;45295;-92
2021/06/06 06:30:46;;;;;;;;;2.00;2.00;;;;;-147.91;100.00;58652.34;5063734;27;46675;-92
2021/06/06 06:33:12;;;;;;;;;2.50;2.50;;;;;-147.91;100.00;58652.34;5064508;27;45753;-92
2021/06/06 06:35:38;;;;;;;;;4.00;1.75;;;;;-147.91;100.00;58652.34;5078758;27;48028;-93
2021/06/06 06:38:06;;;;;;;;;2.00;2.00;;;;;-147.91;100.00;58652.34;5068420;27;45786;-90
2021/06/06 06:40:32;;;;;;;;;3.00;3.00;;;;;-147.91;100.00;58652.34;5065996;27;45463;-92
2021/06/06 06:42:58;;;;;;;;;3.00;2.00;;;;;-147.91;100.00;58652.34;5060978;27;45475;-92
2021/06/06 06:45:27;;;;;;;;;3.50;2.00;;;;;-147.91;100.00;58652.34;5069589;28;47212;-93
2021/06/06 06:48:05;;;;;;;;;2.00;2.00;;;;;-147.91;100.00;58652.34;5060937;27;45496;-91
2021/06/06 06:50:32;;;;;;;;;2.00;2.00;;;;;-147.91;100.00;58652.34;5065390;27;45481;-94
2021/06/06 06:52:57;;;;;;;;;2.25;2.00;;;;;-147.91;100.00;58652.34;5061044;27;45567;-92
2021/06/06 06:55:24;;;;;;;;;2.50;1.75;;;;;-147.91;100.00;58652.34;5080506;27;47132;-92
2021/06/06 06:57:49;;;;;;;;;4.00;2.00;;;;;-147.91;100.00;58652.34;5068870;27;45686;-91
2021/06/06 07:00:19;;;;;;;;;4.00;2.00;;;;;-147.91;100.00;58652.34;5070692;27;45489;-93
2021/06/06 07:02:44;;;;;;;;;1.50;1.50;;;;;-147.91;100.00;58652.34;5059918;27;45833;-92
2021/06/06 07:05:11;;;;;;;;;3.00;2.00;;;;;-147.91;100.00;58652.34;5062021;27;47626;-93
2021/06/06 07:07:36;;;;;;;;;3.00;2.00;;;;;-147.91;100.00;58652.34;5062470;27;45536;-92
2021/06/06 07:10:04;;;;;;;;;2.50;2.50;;;;;-147.91;100.00;58652.34;5065876;27;50800;-92
2021/06/06 07:12:30;;;;;;;;;3.00;2.00;;;;;-147.91;100.00;58652.34;5062317;27;45506;-91
2021/06/06 07:14:55;;;;;;;;;3.00;3.00;;;;;-147.91;100.00;58652.34;5062614;27;47816;-92
2021/06/06 07:17:21;;;;;;;;;3.00;3.00;;;;;-147.91;100.00;58652.34;5081142;27;45452;-90
2021/06/06 07:19:46;;;;;;;;;2.00;2.00;;;;;-147.91;100.00;58652.34;5064899;27;45496;-94
2021/06/06 07:22:12;;;;;;;;;2.00;2.00;;;;;-147.91;100.00;58652.34;5070960;27;45680;-92
2021/06/06 07:24:37;;;;;;;;;3.00;3.00;;;;;-147.91;100.00;58652.34;5064010;27;47271;-90
2021/06/06 07:27:03;;;;;;;;;2.00;2.00;;;;;-147.91;100.00;58652.34;5055882;27;45540;-91
2021/06/06 07:29:30;;;;;;;;;1.00;1.00;;;;;-147.91;100.00;58652.34;5079295;27;45434;-91
2021/06/06 07:31:58;;;;;;;;;1.00;1.00;;;;;-147.91;100.00;58652.34;5055771;27;45485;-94
2021/06/06 07:34:25;;;;;;;;;3.50;2.75;;;;;-147.91;100.00;58652.34;5074883;27;47159;-96
2021/06/06 07:36:55;;;;;;;;;5.00;3.00;;;;;-147.91;100.00;58652.34;5065221;27;45552;-93
2021/06/06 07:39:21;;;;;;;;;1.50;1.50;;;;;-147.91;100.00;58652.34;5069125;27;45492;-94
2021/06/06 07:41:47;;;;;;;;;3.00;2.25;;;;;-147.91;100.00;58652.34;5065024;27;45669;-95
2021/06/06 07:44:13;;;;;;;;;2.00;2.00;;;;;-147.91;100.00;58652.34;5066032;27;46258;-93
2021/06/06 07:46:39;;;;;;;;;3.00;3.00;;;;;-147.91;100.00;58652.34;5061284;27;45991;-92
2021/06/06 07:49:05;;;;;;;;;4.50;1.00;;;;;-147.91;100.00;58652.34;5063745;27;45572;-91
2021/06/06 07:51:31;;;;;;;;;2.00;2.00;;;;;-147.91;100.00;58652.34;5066756;27;46413;-93
2021/06/06 07:53:56;;;;;;;;;2.00;2.00;;;;;-147.91;100.00;58652.34;5066336;27;47407;-91
2021/06/06 07:56:23;;;;;;;;;1.50;1.50;;;;;-147.91;100.00;58652.34;5066249;27;45849;-91
2021/06/06 07:58:49;;;;;;;;;1.50;1.50;;;;;-147.91;100.00;58652.34;5065949;28;45604;-91
2021/06/06 08:01:14;;;;;;;;;2.75;2.75;;;;;-147.91;100.00;58652.34;5060967;27;45987;-90
2021/06/06 08:03:40;;;;;;;;;1.25;1.25;;;;;-147.91;100.00;58652.34;5063992;27;46401;-91
2021/06/06 08:06:07;;;;;;;;;1.75;1.75;;;;;-147.91;100.00;58652.34;5066593;27;45654;-90
2021/06/06 08:08:33;;;;;;;;;4.00;2.00;;;;;-147.91;100.00;58652.34;5060603;27;45394;-91
2021/06/06 08:11:02;;;;;;;;;3.00;1.75;;;;;-147.91;100.00;58652.34;5062560;28;45537;-92
2021/06/06 08:13:27;;;;;;;;;4.25;2.00;;;;;-147.91;100.00;58652.34;5065293;27;46487;-92
2021/06/06 08:15:55;;;;;;;;;1.50;1.50;;;;;-147.91;100.00;58652.34;5066872;27;45423;-90
2021/06/06 08:18:26;;;;;;;;;1.50;1.50;;;;;-147.91;100.00;58652.34;5072990;27;45527;-92
2021/06/06 08:20:55;;;;;;;;;2.00;2.00;;;;;-147.91;100.00;58652.34;5075229;27;45501;-93
2021/06/06 08:23:21;;;;;;;;;2.00;2.00;;;;;-147.91;100.00;58652.34;5072212;27;47342;-93
2021/06/06 08:25:48;;;;;;;;;2.00;2.00;;;;;-147.91;100.00;58652.34;5070063;27;45717;-91
2021/06/06 08:28:15;;;;;;;;;2.75;2.00;;;;;-147.91;100.00;58652.34;5064608;27;44871;-90
2021/06/06 08:30:51;;;;;;;;;2.00;2.00;;;;;-147.91;100.00;58652.34;5063611;27;50348;-91
2021/06/06 08:33:19;;;;;;;;;2.00;2.00;;;;;-147.91;100.00;58652.34;5068842;27;47943;-90
2021/06/06 08:35:45;;;;;;;;;1.75;1.75;;;;;-147.91;100.00;58652.34;5066077;27;46815;-90
2021/06/06 08:38:10;;;;;;;;;2.50;2.00;;;;;-147.91;100.00;58652.34;5067628;27;45556;-91
2021/06/06 08:40:45;;;;;;;;;2.75;2.75;;;;;-147.91;100.00;58652.34;5069576;27;45551;-92
2021/06/06 08:43:12;;;;;;;;;2.50;2.00;;;;;-147.91;100.00;58652.34;5063341;27;46994;-91
2021/06/06 08:46:04;;;;;;;;;3.00;3.00;;;;;-147.91;100.00;58652.34;5067149;27;46254;-92
2021/06/06 08:48:30;;;;;;;;;3.00;3.00;;;;;-147.91;100.00;58652.34;5065807;27;45540;-91
2021/06/06 08:53:49;;;;;;;;;4.75;2.00;;;;;-147.91;100.00;58652.34;5130960;22;45483;-79
2021/06/06 08:56:28;;;;;;;;;3.75;2.00;;;;;-147.91;100.00;58652.34;5004560;28;45642;-81
2021/06/06 08:59:02;;;;;;;;;2.00;2.00;;;;;-147.91;100.00;58652.34;5018748;28;45529;-79
2021/06/06 09:01:46;;;;;;;;;2.00;2.00;;;;;-147.91;100.00;58652.34;5000227;28;45533;-80
2021/06/06 09:04:28;;;;;;;;;3.50;3.00;;;;;-147.91;100.00;58652.34;5022682;28;45473;-81
2021/06/06 09:07:02;;;;;;;;;2.00;2.00;;;;;-147.91;100.00;58652.34;5003914;28;45455;-80
2021/06/06 09:09:32;;;;;;;;;3.75;2.00;;;;;-147.91;100.00;58652.34;5011466;28;45638;-79
2021/06/06 09:12:03;;;;;;;;;3.25;2.00;;;;;-147.91;100.00;58652.34;5005713;28;45799;-79
2021/06/06 09:14:28;;;;;;;;;3.00;3.00;;;;;-147.91;100.00;58652.34;5048790;22;46207;-91
2021/06/06 09:17:07;;;;;;;;;2.75;2.75;;;;;-147.91;100.00;58652.34;5048792;28;45424;-90
2021/06/06 09:20:00;;;;;;;;;2.25;2.25;;;;;-147.91;100.00;58652.34;5053816;28;45614;-89
2021/06/06 09:22:43;;;;;;;;;2.25;2.25;;;;;-147.91;100.00;58652.34;5052895;28;45475;-90
2021/06/06 09:25:33;;;;;;;;;3.00;2.25;;;;;-147.91;100.00;58652.34;5047408;28;47082;-90
2021/06/06 09:28:01;;;;;;;;;2.00;2.00;;;;;-147.91;100.00;58652.34;5055282;28;45626;-92
2021/06/06 09:30:27;;;;;;;;;4.25;4.00;;;;;-147.91;100.00;58652.34;5051943;28;45492;-91
2021/06/06 09:33:23;;;;;;;;;3.50;3.50;;;;;-147.91;100.00;58652.34;5051378;28;45424;-91
2021/06/06 09:35:53;;;;;;;;;3.00;2.00;;;;;-147.91;100.00;58652.34;5046280;28;47112;-90
2021/06/06 09:38:30;;;;;;;;;3.25;3.00;;;;;-147.91;100.00;58652.34;5054685;28;47403;-90
2021/06/06 09:41:09;;;;;;;;;3.75;3.00;;;;;-147.91;100.00;58652.34;5048466;28;45442;-93
2021/06/06 09:43:35;;;;;;;;;3.00;3.00;;;;;-147.91;100.00;58652.34;5054521;28;45681;-90
2021/06/06 09:46:17;;;;;;;;;3.00;1.50;;;;;-147.91;100.00;58652.34;5064384;27;47338;-89
2021/06/06 09:48:46;;;;;;;;;3.75;3.75;;;;;-147.91;100.00;58652.34;5905239;22;46312;-80
2021/06/06 09:51:16;;;;;;;;;3.75;3.75;;;;;-147.91;100.00;58652.34;5059554;27;45645;-81
2021/06/06 09:53:43;;;;;;;;;2.75;2.75;;;;;-147.91;100.00;58652.34;5057792;27;45673;-80
2021/06/06 09:56:29;;;;;;;;;4.00;4.00;;;;;-147.91;100.00;58652.34;5074152;28;46715;-80
2021/06/06 09:59:37;;;;;;;;;5.75;3.75;;;;;-147.91;100.00;58652.34;5065087;27;45600;-79
2021/06/06 10:02:05;;;;;;;;;4.25;3.50;;;;;-147.91;100.00;58652.34;5030041;28;45533;-81
2021/06/06 10:04:35;;;;;;;;;3.00;3.00;;;;;-147.91;100.00;58652.34;5037288;28;45573;-81
2021/06/06 10:07:24;;;;;;;;;2.75;2.75;;;;;-147.91;100.00;58652.34;5060416;22;45829;-90
2021/06/06 10:09:52;;;;;;;;;2.50;2.50;;;;;-147.91;100.00;58652.34;5048926;28;46219;-91
2021/06/06 10:12:43;;;;;;;;;2.00;2.00;;;;;-147.91;100.00;58652.34;5052393;28;45553;-91
2021/06/06 10:15:20;;;;;;;;;4.00;4.00;;;;;-147.91;100.00;58652.34;5049144;28;45679;-90
2021/06/06 10:17:56;;;;;;;;;5.00;3.25;;;;;-147.91;100.00;58652.34;5051372;28;47923;-91
2021/06/06 10:20:31;;;;;;;;;4.50;3.00;;;;;-147.91;100.00;58652.34;5048284;28;45643;-90
2021/06/06 10:23:16;;;;;;;;;3.00;2.00;;;;;-147.91;100.00;58652.34;5048218;28;45378;-90
2021/06/06 10:25:50;;;;;;;;;2.75;2.75;;;;;-147.91;100.00;58652.34;5052535;28;44975;-90
2021/06/06 10:28:23;;;;;;;;;3.25;3.00;;;;;-147.91;100.00;58652.34;5051129;28;47230;-89
2021/06/06 10:31:00;;;;;;;;;4.25;3.25;;;;;-147.91;100.00;58652.34;5047203;28;46707;-89
2021/06/06 10:33:39;;;;;;;;;7.00;4.25;;;;;-147.91;100.00;58652.34;5211318;22;45820;-93
2021/06/06 10:36:05;;;;;;;;;4.00;4.00;;;;;-147.91;100.00;58652.34;5075723;27;45397;-90
2021/06/06 10:38:38;;;;;;;;;4.00;4.00;;;;;-147.91;100.00;58652.34;5066380;27;47231;-91
2021/06/06 10:41:16;;;;;;;;;5.00;4.75;;;;;-147.91;100.00;58652.34;5063725;27;45463;-91
2021/06/06 10:43:55;;;;;;;;;6.25;5.00;;;;;-147.91;100.00;58652.34;5077296;27;47854;-91
2021/06/06 10:46:26;;;;;;;;;5.25;5.25;;;;;-147.91;100.00;58652.34;5074678;27;46097;-91
2021/06/06 10:49:10;;;;;;;;;3.75;3.75;;;;;-147.91;100.00;58652.34;5072841;27;46574;-92
2021/06/06 10:51:47;;;;;;;;;6.00;3.25;;;;;-147.91;100.00;58652.34;5070264;28;45384;-90
2021/06/06 10:54:44;;;;;;;;;5.50;4.25;;;;;-147.91;100.00;58652.34;5068363;27;45658;-91
2021/06/06 10:57:14;;;;;;;;;5.00;3.00;;;;;-147.91;100.00;58652.34;5079353;27;45437;-89
2021/06/06 10:59:46;;;;;;;;;5.75;5.00;;;;;-147.91;100.00;58652.34;5065580;27;45512;-90
2021/06/06 11:02:36;;;;;;;;;8.75;4.00;;;;;-147.91;100.00;58652.34;5071155;27;45940;-91
2021/06/06 11:05:30;;;;;;;;;5.25;5.25;;;;;-147.91;100.00;58652.34;5063779;28;45524;-90
2021/06/06 11:07:56;;;;;;;;;3.00;3.00;;;;;-147.91;100.00;58652.34;5067553;27;45475;-91
2021/06/06 11:10:24;;;;;;;;;5.25;5.00;;;;;-147.91;100.00;58652.34;5074159;27;48538;-89
2021/06/06 11:12:53;;;;;;;;;4.75;4.75;;;;;-147.91;100.00;58652.34;5065356;28;45603;-89
2021/06/06 11:15:35;;;;;;;;;3.75;3.75;;;;;-147.91;100.00;58652.34;5067026;27;45536;-91
2021/06/06 11:18:16;;;;;;;;;4.00;4.00;;;;;-147.91;100.00;58652.34;5064610;28;45472;-90
2021/06/06 11:20:59;;;;;;;;;2.75;2.75;;;;;-147.91;100.00;58652.34;5067377;27;45620;-90
2021/06/06 11:23:53;;;;;;;;;5.00;3.50;;;;;-147.91;100.00;58652.34;5063989;27;45502;-91
2021/06/06 11:26:34;;;;;;;;;3.00;3.00;;;;;-147.91;100.00;58652.34;5074401;27;45615;-93
2021/06/06 11:29:11;;;;;;;;;5.50;5.50;;;;;-147.91;100.00;58652.34;5064530;28;45546;-92